Middle Haddam, Connecticut
Current Conditions -  °F | °C
As of 3:15 AM on Tuesday 27 Jan 2015 (Local Time) from KSNC Reporting Station
Heavy Snow Heavy Snow  
Wind Chill:   Ceiling: 100
Heat Index: 19°   Visibility: 0.25mi
Dew Point: 18°   Wind: 20mph
Humidity: 93%   Direction: 20°NNE
Pressure: 29.6"   Gusts: 31mph
Location:  41.55°N, 72.55°W
Report Text: KSNC 270815Z AUTO 02017G27KT 1/4SM +SN OVC001 M07/M08 A2960 RMK AO2 P0373
Loading
Personal Weather Stations






























Interactive Weather Map New forecast layout! Learn more

10-Day Weather Forecast

Advertisements
Track Severe Weather on mobile